createdAt,value
2019-04-29T00:00:34.935Z,0.00
2019-04-29T00:01:34.906Z,0.00
2019-04-29T00:02:34.878Z,0.00
2019-04-29T00:03:34.850Z,0.00
2019-04-29T00:04:34.820Z,0.00
2019-04-29T00:05:34.793Z,0.00
2019-04-29T00:06:34.764Z,0.00
2019-04-29T00:07:34.735Z,0.00
2019-04-29T00:08:34.723Z,0.00
2019-04-29T00:09:34.680Z,0.00
2019-04-29T00:10:34.651Z,0.00
2019-04-29T00:11:34.626Z,0.00
2019-04-29T00:12:34.594Z,0.00
2019-04-29T00:13:34.568Z,0.00
2019-04-29T00:14:34.537Z,0.00
2019-04-29T00:15:34.512Z,0.00
2019-04-29T00:16:34.482Z,0.00
2019-04-29T00:17:34.453Z,0.00
2019-04-29T00:18:34.426Z,0.00
2019-04-29T00:19:36.222Z,0.00
2019-04-29T00:20:34.368Z,0.00
2019-04-29T00:21:34.341Z,0.00
2019-04-29T00:22:34.312Z,0.00
2019-04-29T00:23:34.289Z,0.00
2019-04-29T00:24:34.255Z,0.00
2019-04-29T00:25:34.228Z,0.00
2019-04-29T00:26:34.199Z,0.00
2019-04-29T00:27:34.171Z,0.00
2019-04-29T00:28:34.142Z,0.00
2019-04-29T00:29:34.114Z,0.00
2019-04-29T00:30:34.086Z,0.00
2019-04-29T00:31:34.059Z,0.00
2019-04-29T00:32:34.031Z,0.00
2019-04-29T00:33:34.003Z,0.00
2019-04-29T00:34:33.971Z,0.00
2019-04-29T00:35:33.945Z,0.00
2019-04-29T00:36:33.919Z,0.00
2019-04-29T00:37:33.888Z,0.00
2019-04-29T00:38:33.859Z,0.00
2019-04-29T00:39:33.831Z,0.00
2019-04-29T00:40:33.805Z,0.00
2019-04-29T00:41:33.776Z,0.00
2019-04-29T00:42:33.747Z,0.00
2019-04-29T00:43:33.776Z,0.00
2019-04-29T00:44:33.696Z,0.00
2019-04-29T00:45:33.664Z,0.00
2019-04-29T00:46:33.635Z,0.00
2019-04-29T00:47:33.606Z,0.00
2019-04-29T00:48:33.579Z,0.00
2019-04-29T00:49:33.551Z,0.00
2019-04-29T00:50:33.522Z,0.00
2019-04-29T00:51:33.494Z,0.00
2019-04-29T00:52:33.468Z,0.00
2019-04-29T00:53:33.440Z,0.00
2019-04-29T00:54:33.410Z,0.00
2019-04-29T00:55:33.381Z,0.00
2019-04-29T00:56:33.357Z,0.00
2019-04-29T00:57:33.327Z,0.00
2019-04-29T00:58:33.300Z,0.00
2019-04-29T00:59:33.270Z,0.00
2019-04-29T01:00:33.243Z,0.00
2019-04-29T01:01:33.214Z,0.00
2019-04-29T01:02:33.191Z,0.00
2019-04-29T01:03:33.157Z,0.00
2019-04-29T01:04:33.130Z,0.00
2019-04-29T01:05:33.102Z,0.00
2019-04-29T01:06:33.072Z,0.00
2019-04-29T01:07:33.044Z,0.00
2019-04-29T01:08:33.021Z,0.00
2019-04-29T01:09:33.045Z,0.00
2019-04-29T01:10:32.961Z,0.00
2019-04-29T01:11:32.932Z,0.00
2019-04-29T01:12:32.909Z,0.00
2019-04-29T01:13:32.876Z,0.00
2019-04-29T01:14:32.847Z,0.00
2019-04-29T01:15:32.830Z,0.00
2019-04-29T01:16:32.797Z,0.00
2019-04-29T01:17:32.769Z,0.00
2019-04-29T01:18:32.737Z,0.00
2019-04-29T01:19:32.764Z,0.00
2019-04-29T01:20:32.683Z,0.00
2019-04-29T01:21:32.652Z,0.00
2019-04-29T01:22:32.624Z,0.00
2019-04-29T01:23:32.596Z,0.00
2019-04-29T01:24:32.570Z,0.00
2019-04-29T01:25:32.545Z,0.00
2019-04-29T01:26:32.513Z,0.00
2019-04-29T01:27:32.488Z,0.00
2019-04-29T01:28:32.458Z,0.00
2019-04-29T01:29:32.429Z,0.00
2019-04-29T01:30:32.400Z,0.00
2019-04-29T01:31:32.380Z,0.00
2019-04-29T01:32:32.344Z,0.00
2019-04-29T01:33:32.317Z,0.00
2019-04-29T01:34:32.288Z,0.00
2019-04-29T01:35:32.261Z,0.00
2019-04-29T01:36:32.233Z,0.00
2019-04-29T01:37:32.205Z,0.00
2019-04-29T01:38:32.177Z,0.00
2019-04-29T01:39:32.147Z,0.00
2019-04-29T01:40:32.124Z,0.00
2019-04-29T01:41:32.096Z,0.00
2019-04-29T01:42:32.066Z,0.00
2019-04-29T01:43:32.036Z,0.00
2019-04-29T01:44:32.013Z,0.00
2019-04-29T01:45:31.983Z,0.00
2019-04-29T01:46:31.954Z,0.00
2019-04-29T01:47:31.931Z,0.00
2019-04-29T01:48:31.898Z,0.00
2019-04-29T01:49:31.869Z,0.00
2019-04-29T01:50:31.841Z,0.00
2019-04-29T01:51:31.813Z,0.00
2019-04-29T01:52:31.785Z,0.00
2019-04-29T01:53:31.756Z,0.00
2019-04-29T01:54:31.729Z,0.00
2019-04-29T01:55:31.768Z,0.00
2019-04-29T01:56:31.673Z,0.00
2019-04-29T01:57:31.645Z,0.00
2019-04-29T01:58:31.618Z,0.00
2019-04-29T01:59:31.589Z,0.00
2019-04-29T02:00:31.562Z,0.00
2019-04-29T02:01:31.534Z,0.00
2019-04-29T02:02:31.506Z,0.00
2019-04-29T02:03:31.478Z,0.00
2019-04-29T02:04:31.449Z,0.00
2019-04-29T02:05:31.421Z,0.00
2019-04-29T02:06:31.393Z,0.00
2019-04-29T02:07:31.364Z,0.00
2019-04-29T02:08:31.378Z,0.00
2019-04-29T02:09:31.309Z,0.00
2019-04-29T02:10:31.284Z,0.00
2019-04-29T02:11:31.252Z,0.00
2019-04-29T02:12:31.226Z,0.00
2019-04-29T02:13:31.198Z,0.00
2019-04-29T02:14:31.172Z,0.00
2019-04-29T02:15:31.147Z,0.00
2019-04-29T02:16:31.114Z,0.00
2019-04-29T02:17:31.086Z,0.00
2019-04-29T02:18:31.058Z,0.00
2019-04-29T02:19:31.031Z,0.00
2019-04-29T02:20:31.001Z,0.00
2019-04-29T02:21:30.974Z,0.00
2019-04-29T02:22:30.945Z,0.00
2019-04-29T02:23:30.917Z,0.00
2019-04-29T02:24:30.890Z,0.00
2019-04-29T02:25:30.865Z,0.00
2019-04-29T02:26:30.840Z,0.00
2019-04-29T02:27:30.805Z,0.00
2019-04-29T02:28:30.778Z,0.00
2019-04-29T02:29:30.752Z,0.00
2019-04-29T02:30:30.747Z,0.00
2019-04-29T02:31:30.698Z,0.00
2019-04-29T02:32:30.671Z,0.00
2019-04-29T02:33:30.640Z,0.00
2019-04-29T02:34:30.610Z,0.00
2019-04-29T02:35:30.584Z,0.00
2019-04-29T02:36:30.557Z,0.00
2019-04-29T02:37:30.528Z,0.00
2019-04-29T02:38:30.503Z,0.00
2019-04-29T02:39:30.575Z,0.00
2019-04-29T02:40:30.444Z,0.00
2019-04-29T02:41:30.416Z,0.00
2019-04-29T02:42:30.388Z,0.00
2019-04-29T02:43:30.368Z,0.00
2019-04-29T02:44:30.333Z,0.00
2019-04-29T02:45:30.316Z,0.00
2019-04-29T02:46:30.277Z,0.00
2019-04-29T02:47:30.412Z,0.00
2019-04-29T02:48:34.435Z,0.00
2019-04-29T02:49:30.192Z,0.00
2019-04-29T02:50:30.163Z,0.00
2019-04-29T02:51:30.138Z,0.00
2019-04-29T02:52:30.109Z,0.00
2019-04-29T02:53:30.079Z,0.00
2019-04-29T02:54:30.103Z,0.00
2019-04-29T02:55:30.024Z,0.00
2019-04-29T02:56:30.000Z,0.00
2019-04-29T02:57:29.970Z,0.00
2019-04-29T02:58:29.995Z,0.00
2019-04-29T02:59:29.913Z,0.00
2019-04-29T03:00:29.885Z,0.00
2019-04-29T03:01:29.856Z,0.00
2019-04-29T03:02:29.828Z,0.00
2019-04-29T03:03:29.885Z,0.00
2019-04-29T03:04:29.789Z,0.00
2019-04-29T03:05:29.755Z,0.00
2019-04-29T03:06:29.716Z,0.00
2019-04-29T03:07:29.688Z,0.00
2019-04-29T03:08:29.663Z,0.00
2019-04-29T03:09:29.755Z,4.00
2019-04-29T03:10:29.604Z,4.00
2019-04-29T03:11:29.575Z,4.00
2019-04-29T03:12:29.550Z,0.00
2019-04-29T03:13:29.529Z,0.00
2019-04-29T03:14:29.497Z,4.00
2019-04-29T03:15:29.464Z,4.00
2019-04-29T03:16:29.435Z,4.00
2019-04-29T03:17:29.418Z,4.00
2019-04-29T03:18:29.381Z,8.00
2019-04-29T03:19:29.352Z,4.00
2019-04-29T03:20:29.325Z,8.00
2019-04-29T03:21:29.381Z,8.00
2019-04-29T03:22:29.268Z,8.00
2019-04-29T03:23:29.240Z,8.00
2019-04-29T03:24:29.212Z,12.00
2019-04-29T03:25:29.193Z,16.00
2019-04-29T03:26:29.157Z,16.00
2019-04-29T03:27:29.127Z,20.00
2019-04-29T03:28:29.098Z,24.00
2019-04-29T03:29:29.083Z,28.00
2019-04-29T03:30:29.051Z,32.00
2019-04-29T03:31:29.015Z,36.00
2019-04-29T03:32:28.987Z,44.00
2019-04-29T03:33:28.961Z,48.00
2019-04-29T03:34:28.932Z,52.00
2019-04-29T03:35:28.904Z,60.00
2019-04-29T03:36:28.875Z,68.00
2019-04-29T03:37:28.845Z,76.00
2019-04-29T03:38:28.818Z,88.00
2019-04-29T03:39:28.789Z,92.00
2019-04-29T03:40:28.762Z,100.00
2019-04-29T03:41:28.738Z,112.00
2019-04-29T03:42:28.706Z,120.00
2019-04-29T03:43:28.677Z,128.00
2019-04-29T03:44:28.649Z,140.00
2019-04-29T03:45:28.625Z,148.00
2019-04-29T03:46:28.591Z,152.00
2019-04-29T03:47:28.565Z,164.00
2019-04-29T03:48:28.537Z,172.00
2019-04-29T03:49:28.507Z,180.00
2019-04-29T03:50:28.484Z,192.00
2019-04-29T03:51:28.452Z,200.00
2019-04-29T03:52:28.424Z,212.00
2019-04-29T03:53:28.864Z,220.00
2019-04-29T03:54:28.365Z,236.00
2019-04-29T03:55:39.026Z,248.00
2019-04-29T03:56:28.323Z,260.00
2019-04-29T03:57:28.283Z,272.00
2019-04-29T03:58:28.258Z,284.00
2019-04-29T03:59:28.240Z,292.00
2019-04-29T04:00:28.213Z,312.00
2019-04-29T04:01:28.170Z,344.00
2019-04-29T04:02:28.139Z,380.00
2019-04-29T04:03:28.112Z,416.00
2019-04-29T04:04:28.085Z,456.00
2019-04-29T04:05:28.074Z,488.00
2019-04-29T04:06:28.026Z,512.00
2019-04-29T04:07:27.998Z,544.00
2019-04-29T04:08:27.971Z,564.00
2019-04-29T04:09:27.944Z,588.00
2019-04-29T04:10:27.912Z,608.00
2019-04-29T04:11:27.884Z,628.00
2019-04-29T04:12:27.861Z,652.00
2019-04-29T04:13:27.829Z,680.00
2019-04-29T04:14:27.799Z,712.00
2019-04-29T04:15:27.773Z,748.00
2019-04-29T04:16:27.749Z,776.00
2019-04-29T04:17:27.714Z,808.00
2019-04-29T04:18:27.690Z,840.00
2019-04-29T04:19:27.658Z,868.00
2019-04-29T04:20:27.629Z,900.00
2019-04-29T04:21:27.601Z,928.00
2019-04-29T04:22:27.602Z,952.00
2019-04-29T04:23:27.544Z,980.00
2019-04-29T04:24:27.517Z,992.00
2019-04-29T04:25:27.531Z,992.00
2019-04-29T04:26:27.459Z,980.00
2019-04-29T04:27:27.432Z,968.00
2019-04-29T04:28:27.404Z,968.00
2019-04-29T04:29:27.375Z,972.00
2019-04-29T04:30:27.346Z,988.00
2019-04-29T04:31:27.318Z,1004.00
2019-04-29T04:32:27.289Z,1016.00
2019-04-29T04:33:27.261Z,1024.00
2019-04-29T04:34:27.243Z,1032.00
2019-04-29T04:35:27.203Z,1040.00
2019-04-29T04:36:27.190Z,1040.00
2019-04-29T04:37:27.147Z,1040.00
2019-04-29T04:38:27.116Z,1040.00
2019-04-29T04:39:27.092Z,1032.00
2019-04-29T04:40:27.059Z,1020.00
2019-04-29T04:41:27.033Z,1020.00
2019-04-29T04:42:29.893Z,1032.00
2019-04-29T04:43:26.975Z,1064.00
2019-04-29T04:44:26.945Z,1124.00
2019-04-29T04:45:26.919Z,1200.00
2019-04-29T04:46:26.890Z,1284.00
2019-04-29T04:47:26.862Z,1356.00
2019-04-29T04:48:26.833Z,1424.00
2019-04-29T04:49:26.803Z,1492.00
2019-04-29T04:50:26.776Z,1556.00
2019-04-29T04:51:26.748Z,1624.00
2019-04-29T04:52:26.719Z,1672.00
2019-04-29T04:53:26.690Z,1724.00
2019-04-29T04:54:26.661Z,1796.00
2019-04-29T04:55:26.632Z,1896.00
2019-04-29T04:56:26.605Z,2032.00
2019-04-29T04:57:26.576Z,2176.00
2019-04-29T04:58:26.546Z,2356.00
2019-04-29T04:59:26.530Z,2520.00
2019-04-29T05:00:26.490Z,2740.00
2019-04-29T05:01:26.463Z,2996.00
2019-04-29T05:02:26.435Z,3224.00
2019-04-29T05:03:26.405Z,3448.00
2019-04-29T05:04:26.376Z,3532.00
2019-04-29T05:05:26.349Z,3568.00
2019-04-29T05:06:26.318Z,3436.00
2019-04-29T05:07:26.289Z,3200.00
2019-04-29T05:08:26.261Z,3028.00
2019-04-29T05:09:26.233Z,2844.00
2019-04-29T05:10:26.204Z,2672.00
2019-04-29T05:11:26.176Z,2276.00
2019-04-29T05:12:26.146Z,1860.00
2019-04-29T05:13:28.327Z,1516.00
2019-04-29T05:14:26.090Z,1312.00
2019-04-29T05:15:26.062Z,1364.00
2019-04-29T05:16:26.033Z,1248.00
2019-04-29T05:17:26.004Z,1172.00
2019-04-29T05:18:25.975Z,896.00
2019-04-29T05:19:25.947Z,796.00
2019-04-29T05:20:25.919Z,1036.00
2019-04-29T05:21:25.891Z,1048.00
2019-04-29T05:22:25.859Z,1108.00
2019-04-29T05:23:25.832Z,1132.00
2019-04-29T05:24:25.804Z,1324.00
2019-04-29T05:25:25.776Z,1840.00
2019-04-29T05:26:25.747Z,1928.00
2019-04-29T05:27:25.721Z,1864.00
2019-04-29T05:28:25.693Z,1996.00
2019-04-29T05:29:28.615Z,2092.00
2019-04-29T05:30:25.632Z,2012.00
2019-04-29T05:31:25.604Z,2292.00
2019-04-29T05:32:25.577Z,2364.00
2019-04-29T05:33:25.549Z,2584.00
2019-04-29T05:34:25.528Z,2380.00
2019-04-29T05:35:26.422Z,2380.00
2019-04-29T05:36:25.463Z,2520.00
2019-04-29T05:37:25.435Z,2252.00
2019-04-29T05:38:25.403Z,1912.00
2019-04-29T05:39:25.375Z,1960.00
2019-04-29T05:40:25.347Z,2088.00
2019-04-29T05:41:25.320Z,2012.00
2019-04-29T05:42:25.289Z,1888.00
2019-04-29T05:43:27.142Z,2188.00
2019-04-29T05:44:25.234Z,2856.00
2019-04-29T05:45:25.204Z,3572.00
2019-04-29T05:46:25.177Z,4312.00
2019-04-29T05:47:25.148Z,3528.00
2019-04-29T05:48:27.695Z,3692.00
2019-04-29T05:49:25.094Z,3444.00
2019-04-29T05:50:25.061Z,3420.00
2019-04-29T05:51:27.212Z,3540.00
2019-04-29T05:52:25.006Z,3744.00
2019-04-29T05:53:24.979Z,3388.00
2019-04-29T05:54:26.964Z,3052.00
2019-04-29T05:55:24.920Z,3228.00
2019-04-29T05:56:24.892Z,3396.00
2019-04-29T05:57:25.617Z,3440.00
2019-04-29T05:58:24.835Z,3884.00
2019-04-29T05:59:24.806Z,4588.00
2019-04-29T06:00:24.779Z,4720.00
2019-04-29T06:01:24.751Z,5176.00
2019-04-29T06:02:33.170Z,4948.00
2019-04-29T06:03:24.692Z,4768.00
2019-04-29T06:04:24.665Z,4820.00
2019-04-29T06:05:24.637Z,4644.00
2019-04-29T06:06:24.609Z,3472.00
2019-04-29T06:07:26.839Z,4012.00
2019-04-29T06:08:24.553Z,5056.00
2019-04-29T06:09:24.524Z,5020.00
2019-04-29T06:10:24.726Z,4268.00
2019-04-29T06:11:24.468Z,3952.00
2019-04-29T06:12:24.439Z,5016.00
2019-04-29T06:13:24.415Z,5676.00
2019-04-29T06:14:24.397Z,5456.00
2019-04-29T06:15:24.358Z,4660.00
2019-04-29T06:16:24.326Z,4540.00
2019-04-29T06:17:24.299Z,4572.00
2019-04-29T06:18:24.269Z,5692.00
2019-04-29T06:19:24.242Z,5788.00
2019-04-29T06:20:24.213Z,5064.00
2019-04-29T06:21:24.186Z,5320.00
2019-04-29T06:22:24.163Z,5336.00
2019-04-29T06:23:24.310Z,5468.00
2019-04-29T06:24:24.100Z,5944.00
2019-04-29T06:25:24.091Z,4832.00
2019-04-29T06:26:24.044Z,4772.00
2019-04-29T06:27:24.019Z,4828.00
2019-04-29T06:28:26.529Z,5928.00
2019-04-29T06:29:23.963Z,5376.00
2019-04-29T06:30:23.936Z,5072.00
2019-04-29T06:31:23.905Z,5096.00
2019-04-29T06:32:24.802Z,5608.00
2019-04-29T06:33:24.343Z,4840.00
2019-04-29T06:34:23.819Z,3548.00
2019-04-29T06:35:23.792Z,3192.00
2019-04-29T06:36:23.763Z,3472.00
2019-04-29T06:37:23.741Z,4040.00
2019-04-29T06:38:23.706Z,4956.00
2019-04-29T06:39:23.690Z,5544.00
2019-04-29T06:40:23.651Z,5440.00
2019-04-29T06:41:23.623Z,5332.00
2019-04-29T06:42:23.594Z,4404.00
2019-04-29T06:43:24.437Z,5124.00
2019-04-29T06:44:23.540Z,5796.00
2019-04-29T06:45:23.514Z,5364.00
2019-04-29T06:46:23.485Z,5744.00
2019-04-29T06:47:23.456Z,5280.00
2019-04-29T06:48:23.480Z,4920.00
2019-04-29T06:49:23.399Z,4904.00
2019-04-29T06:50:23.371Z,4404.00
2019-04-29T06:51:23.343Z,5244.00
2019-04-29T06:52:23.316Z,5112.00
2019-04-29T06:53:23.375Z,4816.00
2019-04-29T06:54:23.259Z,4204.00
2019-04-29T06:55:23.230Z,3636.00
2019-04-29T06:56:23.202Z,4220.00
2019-04-29T06:57:23.175Z,4308.00
2019-04-29T06:58:23.145Z,4464.00
2019-04-29T06:59:23.118Z,3768.00
2019-04-29T07:00:24.007Z,3964.00
2019-04-29T07:01:23.064Z,3684.00
2019-04-29T07:02:23.035Z,3476.00
2019-04-29T07:03:25.417Z,3476.00
2019-04-29T07:04:22.980Z,3712.00
2019-04-29T07:05:22.957Z,3712.00
2019-04-29T07:06:22.922Z,3544.00
2019-04-29T07:07:22.904Z,3140.00
2019-04-29T07:08:22.867Z,2996.00
2019-04-29T07:09:22.838Z,3648.00
2019-04-29T07:10:26.851Z,3908.00
2019-04-29T07:11:22.899Z,3760.00
2019-04-29T07:12:22.755Z,3596.00
2019-04-29T07:13:24.467Z,3680.00
2019-04-29T07:14:22.698Z,3888.00
2019-04-29T07:15:22.669Z,3624.00
2019-04-29T07:16:27.249Z,3752.00
2019-04-29T07:17:22.614Z,3272.00
2019-04-29T07:18:22.589Z,2856.00
2019-04-29T07:19:26.692Z,2632.00
2019-04-29T07:20:22.528Z,2740.00
2019-04-29T07:21:22.505Z,2760.00
2019-04-29T07:22:25.757Z,2532.00
2019-04-29T07:23:22.443Z,2572.00
2019-04-29T07:24:22.417Z,2596.00
2019-04-29T07:25:24.774Z,2696.00
2019-04-29T07:26:22.359Z,2772.00
2019-04-29T07:27:22.331Z,2592.00
2019-04-29T07:28:22.304Z,2780.00
2019-04-29T07:29:29.700Z,2344.00
2019-04-29T07:30:22.247Z,2480.00
2019-04-29T07:31:22.219Z,2240.00
2019-04-29T07:32:22.191Z,2236.00
2019-04-29T07:33:24.078Z,2492.00
2019-04-29T07:34:22.134Z,2616.00
2019-04-29T07:35:22.105Z,2912.00
2019-04-29T07:36:22.870Z,2960.00
2019-04-29T07:37:22.051Z,2976.00
2019-04-29T07:38:22.021Z,2804.00
2019-04-29T07:39:21.994Z,3088.00
2019-04-29T07:40:21.967Z,3856.00
2019-04-29T07:41:21.939Z,3808.00
2019-04-29T07:42:25.065Z,3188.00
2019-04-29T07:43:21.881Z,3148.00
2019-04-29T07:44:21.852Z,2980.00
2019-04-29T07:45:23.741Z,3100.00
2019-04-29T07:46:21.797Z,3556.00
2019-04-29T07:47:24.862Z,3796.00
2019-04-29T07:48:21.744Z,3624.00
2019-04-29T07:49:21.714Z,3180.00
2019-04-29T07:50:22.412Z,3004.00
2019-04-29T07:51:21.656Z,3064.00
2019-04-29T07:52:21.627Z,3156.00
2019-04-29T07:53:34.161Z,3268.00
2019-04-29T07:54:21.574Z,3860.00
2019-04-29T07:55:21.544Z,3984.00
2019-04-29T07:56:21.517Z,4048.00
2019-04-29T07:57:21.489Z,3344.00
2019-04-29T07:58:23.078Z,3792.00
2019-04-29T07:59:21.435Z,3640.00
2019-04-29T08:00:21.404Z,4460.00
2019-04-29T08:01:24.392Z,3676.00
2019-04-29T08:02:21.347Z,3432.00
2019-04-29T08:03:21.319Z,3292.00
2019-04-29T08:04:21.292Z,3208.00
2019-04-29T08:05:21.265Z,3356.00
2019-04-29T08:06:21.235Z,3476.00
2019-04-29T08:07:21.208Z,2992.00
2019-04-29T08:08:22.696Z,3092.00
2019-04-29T08:09:21.152Z,3172.00
2019-04-29T08:10:23.572Z,3604.00
2019-04-29T08:11:21.096Z,4248.00
2019-04-29T08:12:21.069Z,3660.00
2019-04-29T08:13:21.052Z,3952.00
2019-04-29T08:14:21.020Z,4208.00
2019-04-29T08:15:20.986Z,3984.00
2019-04-29T08:16:20.963Z,3956.00
2019-04-29T08:17:20.931Z,4172.00
2019-04-29T08:18:20.904Z,4900.00
2019-04-29T08:19:24.737Z,5168.00
2019-04-29T08:20:20.847Z,5624.00
2019-04-29T08:21:20.818Z,6080.00
2019-04-29T08:22:22.883Z,5556.00
2019-04-29T08:23:20.762Z,4600.00
2019-04-29T08:24:20.734Z,4044.00
2019-04-29T08:25:21.788Z,3720.00
2019-04-29T08:26:20.678Z,3712.00
2019-04-29T08:27:20.652Z,4064.00
2019-04-29T08:28:20.642Z,4168.00
2019-04-29T08:29:20.595Z,4268.00
2019-04-29T08:30:20.602Z,4180.00
2019-04-29T08:31:20.977Z,4108.00
2019-04-29T08:32:20.514Z,3944.00
2019-04-29T08:33:20.484Z,4100.00
2019-04-29T08:34:23.200Z,4256.00
2019-04-29T08:35:20.429Z,4332.00
2019-04-29T08:36:20.401Z,4108.00
2019-04-29T08:37:20.372Z,4232.00
2019-04-29T08:38:20.345Z,4772.00
2019-04-29T08:39:20.317Z,3968.00
2019-04-29T08:40:20.290Z,4192.00
2019-04-29T08:41:21.581Z,4452.00
2019-04-29T08:42:20.236Z,4404.00
2019-04-29T08:43:22.145Z,4372.00
2019-04-29T08:44:20.179Z,5044.00
2019-04-29T08:45:20.150Z,5328.00
2019-04-29T08:46:20.121Z,5776.00
2019-04-29T08:47:23.085Z,5664.00
2019-04-29T08:48:20.068Z,6232.00
2019-04-29T08:49:20.043Z,6632.00
2019-04-29T08:50:20.014Z,6276.00
2019-04-29T08:51:19.984Z,6268.00
2019-04-29T08:52:19.962Z,5200.00
2019-04-29T08:53:19.956Z,5232.00
2019-04-29T08:54:20.162Z,5960.00
2019-04-29T08:55:19.873Z,5972.00
2019-04-29T08:56:19.849Z,4324.00
2019-04-29T08:57:19.819Z,4228.00
2019-04-29T08:58:19.792Z,4332.00
2019-04-29T08:59:20.752Z,6164.00
2019-04-29T09:00:19.737Z,7064.00
2019-04-29T09:01:19.710Z,7608.00
2019-04-29T09:02:33.570Z,8952.00
2019-04-29T09:03:23.435Z,8788.00
2019-04-29T09:04:19.628Z,8400.00
2019-04-29T09:05:19.599Z,8980.00
2019-04-29T09:06:19.570Z,8976.00
2019-04-29T09:07:22.099Z,10920.00
2019-04-29T09:08:19.539Z,11600.00
2019-04-29T09:10:19.461Z,11396.00
2019-04-29T09:11:19.435Z,11388.00
2019-04-29T09:12:23.592Z,11140.00
2019-04-29T09:13:19.379Z,10668.00
2019-04-29T09:13:54.543Z,11592.00
2019-04-29T09:14:19.352Z,11172.00
2019-04-29T09:15:19.323Z,11120.00
2019-04-29T09:16:19.297Z,10616.00
2019-04-29T09:17:20.629Z,9900.00
2019-04-29T09:18:19.242Z,10076.00
2019-04-29T09:19:19.216Z,10092.00
2019-04-29T09:20:19.188Z,9268.00
2019-04-29T09:21:19.161Z,8428.00
2019-04-29T09:22:19.134Z,8180.00
2019-04-29T09:23:19.106Z,7380.00
2019-04-29T09:24:19.134Z,7756.00
2019-04-29T09:25:21.276Z,6652.00
2019-04-29T09:26:19.024Z,6448.00
2019-04-29T09:27:18.999Z,5484.00
2019-04-29T09:28:27.163Z,4896.00
2019-04-29T09:29:18.944Z,5252.00
2019-04-29T09:30:18.916Z,5608.00
2019-04-29T09:31:18.890Z,6192.00
2019-04-29T09:32:18.862Z,8716.00
2019-04-29T09:33:18.837Z,9736.00
2019-04-29T09:34:19.855Z,10124.00
2019-04-29T09:35:18.780Z,9528.00
2019-04-29T09:36:18.755Z,8356.00
2019-04-29T09:37:22.913Z,7692.00
2019-04-29T09:38:18.698Z,7536.00
2019-04-29T09:39:21.300Z,8180.00
2019-04-29T09:40:18.645Z,8912.00
2019-04-29T09:41:18.616Z,9604.00
2019-04-29T09:42:18.592Z,10412.00
2019-04-29T09:43:21.462Z,10028.00
2019-04-29T09:44:18.537Z,11264.00
2019-04-29T09:45:19.586Z,11224.00
2019-04-29T09:46:18.734Z,10700.00
2019-04-29T09:47:18.457Z,10428.00
2019-04-29T09:48:18.429Z,11512.00
2019-04-29T09:49:18.403Z,12768.00
2019-04-29T09:50:18.375Z,13152.00
2019-04-29T09:51:22.867Z,13832.00
2019-04-29T09:52:18.323Z,15716.00
2019-04-29T09:53:18.295Z,17472.00
2019-04-29T09:54:18.268Z,19072.00
2019-04-29T09:55:18.243Z,19488.00
2019-04-29T09:56:18.219Z,20000.00
2019-04-29T09:57:18.190Z,20800.00
2019-04-29T09:58:18.163Z,21120.00
2019-04-29T09:59:18.136Z,21408.00
2019-04-29T10:00:18.110Z,21344.00
2019-04-29T10:01:20.355Z,21312.00
2019-04-29T10:02:18.057Z,21696.00
2019-04-29T10:03:18.031Z,22368.00
2019-04-29T10:04:18.007Z,22912.00
2019-04-29T10:05:17.980Z,23296.00
2019-04-29T10:06:17.953Z,24096.00
2019-04-29T10:07:17.927Z,25120.00
2019-04-29T10:08:17.902Z,27072.00
2019-04-29T10:09:17.880Z,30080.00
2019-04-29T10:10:17.850Z,33536.00
2019-04-29T10:11:17.878Z,36768.00
2019-04-29T10:12:17.800Z,39360.00
2019-04-29T10:13:17.775Z,40160.00
2019-04-29T10:14:17.749Z,40800.00
2019-04-29T10:15:17.723Z,41504.00
2019-04-29T10:16:17.699Z,41664.00
2019-04-29T10:17:17.679Z,41280.00
2019-04-29T10:18:17.651Z,41344.00
2019-04-29T10:19:17.622Z,41120.00
2019-04-29T10:20:17.601Z,40064.00
2019-04-29T10:21:21.534Z,37952.00
2019-04-29T10:22:17.549Z,36416.00
2019-04-29T10:23:17.523Z,35488.00
2019-04-29T10:24:17.499Z,35040.00
2019-04-29T10:25:17.475Z,34944.00
2019-04-29T10:26:17.449Z,34784.00
2019-04-29T10:27:17.425Z,34432.00
2019-04-29T10:28:17.401Z,33632.00
2019-04-29T10:29:18.473Z,33952.00
2019-04-29T10:30:17.351Z,34176.00
2019-04-29T10:31:17.327Z,34240.00
2019-04-29T10:32:17.304Z,34368.00
2019-04-29T10:33:19.248Z,34144.00
2019-04-29T10:34:17.261Z,33536.00
2019-04-29T10:35:17.230Z,31712.00
2019-04-29T10:36:20.619Z,33536.00
2019-04-29T10:37:17.181Z,33696.00
2019-04-29T10:38:17.156Z,33856.00
2019-04-29T10:39:18.634Z,31520.00
2019-04-29T10:40:17.111Z,26976.00
2019-04-29T10:41:17.090Z,28064.00
2019-04-29T10:42:17.063Z,30880.00
2019-04-29T10:43:17.293Z,32736.00
2019-04-29T10:44:17.013Z,33664.00
2019-04-29T10:45:16.990Z,33696.00
2019-04-29T10:46:16.966Z,33440.00
2019-04-29T10:47:16.940Z,32768.00
2019-04-29T10:48:16.917Z,32544.00
2019-04-29T10:49:16.893Z,35104.00
2019-04-29T10:50:17.133Z,35744.00
2019-04-29T10:51:16.844Z,32928.00
2019-04-29T10:52:16.820Z,31680.00
2019-04-29T10:53:17.397Z,31424.00
2019-04-29T10:54:16.776Z,26400.00
2019-04-29T10:55:16.751Z,27520.00
2019-04-29T10:56:16.726Z,30528.00
2019-04-29T10:57:16.703Z,27936.00
2019-04-29T10:58:16.727Z,25568.00
2019-04-29T10:59:16.654Z,25440.00
2019-04-29T11:00:16.915Z,28480.00
2019-04-29T11:01:16.608Z,39808.00
2019-04-29T11:02:16.584Z,36384.00
2019-04-29T11:03:16.560Z,32224.00
2019-04-29T11:04:16.540Z,41920.00
2019-04-29T11:05:16.514Z,41760.00
2019-04-29T11:06:16.489Z,25472.00
2019-04-29T11:07:19.192Z,29600.00
2019-04-29T11:08:16.444Z,38080.00
2019-04-29T11:09:16.423Z,39712.00
2019-04-29T11:10:24.896Z,36320.00
2019-04-29T11:11:23.340Z,40320.00
2019-04-29T11:12:16.354Z,42080.00
2019-04-29T11:13:16.331Z,58240.00
2019-04-29T11:14:16.307Z,40032.00
2019-04-29T11:15:16.284Z,32480.00
2019-04-29T11:16:16.261Z,54784.00
2019-04-29T11:17:16.866Z,55040.00
2019-04-29T11:18:18.164Z,77152.00
2019-04-29T11:19:16.207Z,77568.00
2019-04-29T11:20:19.551Z,51264.00
2019-04-29T11:21:16.149Z,101344.00
2019-04-29T11:22:16.126Z,100320.00
2019-04-29T11:23:18.006Z,96736.00
2019-04-29T11:24:16.083Z,96704.00
2019-04-29T11:25:16.060Z,94336.00
2019-04-29T11:26:16.041Z,95680.00
2019-04-29T11:27:16.017Z,96608.00
2019-04-29T11:28:17.601Z,97280.00
2019-04-29T11:29:15.974Z,103296.00
2019-04-29T11:30:15.952Z,107008.00
2019-04-29T11:31:19.139Z,107648.00
2019-04-29T11:32:15.911Z,86016.00
2019-04-29T11:33:15.890Z,97184.00
2019-04-29T11:34:17.966Z,93664.00
2019-04-29T11:35:15.848Z,99616.00
2019-04-29T11:36:15.828Z,104608.00
2019-04-29T11:37:17.758Z,108320.00
2019-04-29T11:38:15.787Z,105248.00
2019-04-29T11:39:15.767Z,75040.00
2019-04-29T11:40:15.746Z,60320.00
2019-04-29T11:41:19.689Z,75840.00
2019-04-29T11:42:15.704Z,67232.00
2019-04-29T11:43:17.195Z,94880.00
2019-04-29T11:44:15.667Z,65984.00
2019-04-29T11:45:15.649Z,52288.00
2019-04-29T11:46:15.811Z,57664.00
2019-04-29T11:47:15.607Z,83456.00
2019-04-29T11:48:15.587Z,71776.00
2019-04-29T11:49:15.567Z,93536.00
2019-04-29T11:50:15.547Z,96896.00
2019-04-29T11:51:15.528Z,86464.00
2019-04-29T11:52:15.508Z,86560.00
2019-04-29T11:53:15.493Z,95808.00
2019-04-29T11:54:18.074Z,76064.00
2019-04-29T11:55:18.459Z,60448.00
2019-04-29T11:56:15.430Z,84256.00
2019-04-29T11:57:17.084Z,79712.00
2019-04-29T11:58:15.391Z,76224.00
2019-04-29T11:59:15.496Z,93952.00
2019-04-29T12:00:15.354Z,96192.00
2019-04-29T12:01:15.333Z,85120.00
2019-04-29T12:02:15.311Z,97888.00
2019-04-29T12:03:19.008Z,86688.00
2019-04-29T12:04:15.277Z,83808.00
2019-04-29T12:05:15.254Z,70368.00
2019-04-29T12:06:16.324Z,55008.00
2019-04-29T12:07:15.215Z,45024.00
2019-04-29T12:08:17.065Z,72416.00
2019-04-29T12:09:15.177Z,89760.00
2019-04-29T12:10:15.157Z,89472.00
2019-04-29T12:11:15.137Z,88832.00
2019-04-29T12:12:15.119Z,70688.00
2019-04-29T12:13:18.913Z,73728.00
2019-04-29T12:14:15.080Z,86272.00
2019-04-29T12:15:15.405Z,84832.00
2019-04-29T12:16:15.040Z,83744.00
2019-04-29T12:17:15.022Z,82432.00
2019-04-29T12:18:15.055Z,81120.00
2019-04-29T12:19:17.074Z,75008.00
2019-04-29T12:20:14.961Z,78144.00
2019-04-29T12:21:14.943Z,76160.00